sensor_id;sensor_type;location;lat;lon;timestamp;pressure;altitude;pressure_sealevel;temperature;humidity
47636;BME280;33364;50.766;15.338;2023-12-20T00:00:29;94564.28;;;1.85;99.34
47636;BME280;33364;50.766;15.338;2023-12-20T00:03:15;94557.25;;;1.85;99.47
47636;BME280;33364;50.766;15.338;2023-12-20T00:05:41;94553.09;;;1.84;99.51
47636;BME280;33364;50.766;15.338;2023-12-20T00:08:07;94545.56;;;1.88;99.82
47636;BME280;33364;50.766;15.338;2023-12-20T00:10:32;94540.06;;;1.84;99.76
47636;BME280;33364;50.766;15.338;2023-12-20T00:12:58;94546.31;;;1.83;99.90
47636;BME280;33364;50.766;15.338;2023-12-20T00:15:24;94544.72;;;1.82;99.52
47636;BME280;33364;50.766;15.338;2023-12-20T00:17:50;94537.22;;;1.86;99.75
47636;BME280;33364;50.766;15.338;2023-12-20T00:20:15;94537.69;;;1.83;99.64
47636;BME280;33364;50.766;15.338;2023-12-20T00:22:41;94529.91;;;1.83;99.85
47636;BME280;33364;50.766;15.338;2023-12-20T00:25:07;94524.69;;;1.83;99.68
47636;BME280;33364;50.766;15.338;2023-12-20T00:27:33;94530.44;;;1.85;99.99
47636;BME280;33364;50.766;15.338;2023-12-20T00:29:59;94532.50;;;1.83;99.93
47636;BME280;33364;50.766;15.338;2023-12-20T00:32:25;94534.53;;;1.81;99.76
47636;BME280;33364;50.766;15.338;2023-12-20T00:34:51;94533.00;;;1.80;99.82
47636;BME280;33364;50.766;15.338;2023-12-20T00:37:17;94542.91;;;1.83;100.00
47636;BME280;33364;50.766;15.338;2023-12-20T00:39:42;94538.56;;;1.88;99.76
47636;BME280;33364;50.766;15.338;2023-12-20T00:42:08;94529.91;;;1.83;99.99
47636;BME280;33364;50.766;15.338;2023-12-20T00:44:34;94528.31;;;1.82;99.77
47636;BME280;33364;50.766;15.338;2023-12-20T00:47:00;94533.53;;;1.82;99.69
47636;BME280;33364;50.766;15.338;2023-12-20T00:49:26;94520.50;;;1.82;99.85
47636;BME280;33364;50.766;15.338;2023-12-20T00:51:52;94525.19;;;1.80;99.76
47636;BME280;33364;50.766;15.338;2023-12-20T00:54:18;94517.84;;;1.77;99.70
47636;BME280;33364;50.766;15.338;2023-12-20T00:56:44;94517.59;;;1.78;99.87
47636;BME280;33364;50.766;15.338;2023-12-20T00:59:10;94514.44;;;1.76;99.79
47636;BME280;33364;50.766;15.338;2023-12-20T01:01:36;94518.41;;;1.79;99.62
47636;BME280;33364;50.766;15.338;2023-12-20T01:04:02;94508.22;;;1.77;99.83
47636;BME280;33364;50.766;15.338;2023-12-20T01:06:28;94503.56;;;1.79;99.69
47636;BME280;33364;50.766;15.338;2023-12-20T01:08:54;94502.78;;;1.79;99.59
47636;BME280;33364;50.766;15.338;2023-12-20T01:11:20;94499.44;;;1.83;99.67
47636;BME280;33364;50.766;15.338;2023-12-20T01:13:45;94491.56;;;1.78;99.53
47636;BME280;33364;50.766;15.338;2023-12-20T01:16:12;94482.34;;;1.70;99.42
47636;BME280;33364;50.766;15.338;2023-12-20T01:18:37;94476.63;;;1.68;99.46
47636;BME280;33364;50.766;15.338;2023-12-20T01:21:04;94476.56;;;1.63;99.21
47636;BME280;33364;50.766;15.338;2023-12-20T01:23:31;94481.84;;;1.68;99.18
47636;BME280;33364;50.766;15.338;2023-12-20T01:25:57;94476.84;;;1.67;99.05
47636;BME280;33364;50.766;15.338;2023-12-20T01:28:25;94465.09;;;1.64;99.12
47636;BME280;33364;50.766;15.338;2023-12-20T01:30:51;94465.09;;;1.64;99.01
47636;BME280;33364;50.766;15.338;2023-12-20T01:33:18;94467.72;;;1.64;99.28
47636;BME280;33364;50.766;15.338;2023-12-20T01:35:43;94468.25;;;1.66;99.11
47636;BME280;33364;50.766;15.338;2023-12-20T01:38:09;94468.81;;;1.68;99.07
47636;BME280;33364;50.766;15.338;2023-12-20T01:40:35;94466.22;;;1.68;99.06
47636;BME280;33364;50.766;15.338;2023-12-20T01:43:03;94464.16;;;1.70;99.17
47636;BME280;33364;50.766;15.338;2023-12-20T01:45:32;94458.47;;;1.74;99.16
47636;BME280;33364;50.766;15.338;2023-12-20T01:47:58;94446.47;;;1.73;99.17
47636;BME280;33364;50.766;15.338;2023-12-20T01:50:25;94445.41;;;1.68;99.39
47636;BME280;33364;50.766;15.338;2023-12-20T01:52:52;94439.13;;;1.69;99.17
47636;BME280;33364;50.766;15.338;2023-12-20T01:55:21;94439.63;;;1.66;99.13
47636;BME280;33364;50.766;15.338;2023-12-20T01:57:47;94445.63;;;1.67;99.23
47636;BME280;33364;50.766;15.338;2023-12-20T02:00:14;94447.50;;;1.72;99.14
47636;BME280;33364;50.766;15.338;2023-12-20T02:02:40;94442.84;;;1.74;99.16
47636;BME280;33364;50.766;15.338;2023-12-20T02:05:07;94435.34;;;1.77;99.14
47636;BME280;33364;50.766;15.338;2023-12-20T02:07:33;94428.78;;;1.75;99.11
47636;BME280;33364;50.766;15.338;2023-12-20T02:10:01;94426.75;;;1.77;99.08
47636;BME280;33364;50.766;15.338;2023-12-20T02:12:27;94423.13;;;1.78;99.36
47636;BME280;33364;50.766;15.338;2023-12-20T02:14:53;94417.66;;;1.79;99.27
47636;BME280;33364;50.766;15.338;2023-12-20T02:17:20;94406.72;;;1.77;99.24
47636;BME280;33364;50.766;15.338;2023-12-20T02:19:47;94406.94;;;1.76;99.33
47636;BME280;33364;50.766;15.338;2023-12-20T02:22:13;94402.28;;;1.78;99.58
47636;BME280;33364;50.766;15.338;2023-12-20T02:24:39;94396.59;;;1.81;99.54
47636;BME280;33364;50.766;15.338;2023-12-20T02:27:06;94398.09;;;1.77;99.46
47636;BME280;33364;50.766;15.338;2023-12-20T02:29:35;94405.91;;;1.77;99.39
47636;BME280;33364;50.766;15.338;2023-12-20T02:32:01;94413.72;;;1.77;99.69
47636;BME280;33364;50.766;15.338;2023-12-20T02:34:27;94408.53;;;1.77;99.36
47636;BME280;33364;50.766;15.338;2023-12-20T02:36:53;94409.38;;;1.82;99.74
47636;BME280;33364;50.766;15.338;2023-12-20T02:39:19;94409.88;;;1.79;99.70
47636;BME280;33364;50.766;15.338;2023-12-20T02:41:44;94404.66;;;1.79;99.60
47636;BME280;33364;50.766;15.338;2023-12-20T02:44:10;94416.63;;;1.80;99.77
47636;BME280;33364;50.766;15.338;2023-12-20T02:46:36;94408.06;;;1.80;99.67
47636;BME280;33364;50.766;15.338;2023-12-20T02:49:02;94403.38;;;1.82;99.64
47636;BME280;33364;50.766;15.338;2023-12-20T02:51:28;94410.66;;;1.80;99.62
47636;BME280;33364;50.766;15.338;2023-12-20T02:53:54;94407.25;;;1.79;99.49
47636;BME280;33364;50.766;15.338;2023-12-20T02:56:19;94405.69;;;1.78;99.79
47636;BME280;33364;50.766;15.338;2023-12-20T02:58:45;94397.63;;;1.80;99.72
47636;BME280;33364;50.766;15.338;2023-12-20T03:01:11;94401.75;;;1.76;99.45
47636;BME280;33364;50.766;15.338;2023-12-20T03:03:36;94396.00;;;1.74;99.45
47636;BME280;33364;50.766;15.338;2023-12-20T03:06:02;94404.06;;;1.72;99.51
47636;BME280;33364;50.766;15.338;2023-12-20T03:08:28;94400.88;;;1.70;99.18
47636;BME280;33364;50.766;15.338;2023-12-20T03:10:54;94396.66;;;1.64;99.15
47636;BME280;33364;50.766;15.338;2023-12-20T03:13:20;94397.72;;;1.63;99.07
47636;BME280;33364;50.766;15.338;2023-12-20T03:15:46;94395.91;;;1.63;99.39
47636;BME280;33364;50.766;15.338;2023-12-20T03:18:12;94395.34;;;1.61;99.13
47636;BME280;33364;50.766;15.338;2023-12-20T03:20:37;94395.91;;;1.63;99.04
47636;BME280;33364;50.766;15.338;2023-12-20T03:23:03;94396.13;;;1.62;99.30
47636;BME280;33364;50.766;15.338;2023-12-20T03:25:29;94392.44;;;1.58;99.05
47636;BME280;33364;50.766;15.338;2023-12-20T03:27:55;94389.53;;;1.54;99.08
47636;BME280;33364;50.766;15.338;2023-12-20T03:30:21;94389.53;;;1.54;99.16
47636;BME280;33364;50.766;15.338;2023-12-20T03:32:47;94395.78;;;1.53;99.11
47636;BME280;33364;50.766;15.338;2023-12-20T03:35:13;94392.63;;;1.51;98.98
47636;BME280;33364;50.766;15.338;2023-12-20T03:37:39;94394.22;;;1.52;99.00
47636;BME280;33364;50.766;15.338;2023-12-20T03:40:06;94394.22;;;1.52;99.16
47636;BME280;33364;50.766;15.338;2023-12-20T03:42:32;94398.63;;;1.52;98.95
47636;BME280;33364;50.766;15.338;2023-12-20T03:44:58;94386.13;;;1.54;98.79
47636;BME280;33364;50.766;15.338;2023-12-20T03:47:24;94388.50;;;1.55;99.09
47636;BME280;33364;50.766;15.338;2023-12-20T03:49:49;94395.56;;;1.60;99.01
47636;BME280;33364;50.766;15.338;2023-12-20T03:52:15;94393.09;;;1.48;98.59
47636;BME280;33364;50.766;15.338;2023-12-20T03:54:41;94391.00;;;1.45;98.55
47636;BME280;33364;50.766;15.338;2023-12-20T03:57:10;94390.75;;;1.47;99.00
47636;BME280;33364;50.766;15.338;2023-12-20T03:59:39;94385.56;;;1.47;98.65
47636;BME280;33364;50.766;15.338;2023-12-20T04:02:05;94401.63;;;1.44;98.85
47636;BME280;33364;50.766;15.338;2023-12-20T04:04:30;94398.00;;;1.45;98.48
47636;BME280;33364;50.766;15.338;2023-12-20T04:06:56;94409.50;;;1.49;98.41
47636;BME280;33364;50.766;15.338;2023-12-20T04:09:22;94409.19;;;1.45;98.68
47636;BME280;33364;50.766;15.338;2023-12-20T04:11:48;94407.63;;;1.44;98.66
47636;BME280;33364;50.766;15.338;2023-12-20T04:14:14;94409.94;;;1.41;98.50
47636;BME280;33364;50.766;15.338;2023-12-20T04:16:39;94408.66;;;1.43;98.42
47636;BME280;33364;50.766;15.338;2023-12-20T04:19:05;94403.44;;;1.43;98.57
47636;BME280;33364;50.766;15.338;2023-12-20T04:21:31;94403.94;;;1.40;98.57
47636;BME280;33364;50.766;15.338;2023-12-20T04:23:56;94407.56;;;1.39;98.72
47636;BME280;33364;50.766;15.338;2023-12-20T04:26:22;94411.69;;;1.35;98.52
47636;BME280;33364;50.766;15.338;2023-12-20T04:28:48;94409.63;;;1.37;98.57
47636;BME280;33364;50.766;15.338;2023-12-20T04:31:14;94403.88;;;1.35;98.64
47636;BME280;33364;50.766;15.338;2023-12-20T04:33:39;94406.72;;;1.34;98.72
47636;BME280;33364;50.766;15.338;2023-12-20T04:36:06;94411.69;;;1.35;98.69
47636;BME280;33364;50.766;15.338;2023-12-20T04:38:31;94402.84;;;1.36;98.63
47636;BME280;33364;50.766;15.338;2023-12-20T04:40:57;94403.88;;;1.35;98.50
47636;BME280;33364;50.766;15.338;2023-12-20T04:43:23;94404.38;;;1.32;98.77
47636;BME280;33364;50.766;15.338;2023-12-20T04:45:49;94409.63;;;1.37;98.70
47636;BME280;33364;50.766;15.338;2023-12-20T04:48:14;94408.34;;;1.40;98.79
47636;BME280;33364;50.766;15.338;2023-12-20T04:50:40;94413.84;;;1.43;98.71
47636;BME280;33364;50.766;15.338;2023-12-20T04:53:06;94412.59;;;1.46;98.84
47636;BME280;33364;50.766;15.338;2023-12-20T04:55:32;94414.34;;;1.40;98.63
47636;BME280;33364;50.766;15.338;2023-12-20T04:57:57;94408.91;;;1.42;98.85
47636;BME280;33364;50.766;15.338;2023-12-20T05:00:24;94405.13;;;1.33;98.60
47636;BME280;33364;50.766;15.338;2023-12-20T05:02:49;94407.19;;;1.31;98.73
47636;BME280;33364;50.766;15.338;2023-12-20T05:05:15;94406.78;;;1.39;98.73
47636;BME280;33364;50.766;15.338;2023-12-20T05:07:43;94405.91;;;1.33;98.63
47636;BME280;33364;50.766;15.338;2023-12-20T05:10:09;94414.22;;;1.30;98.44
47636;BME280;33364;50.766;15.338;2023-12-20T05:12:35;94416.03;;;1.30;98.59
47636;BME280;33364;50.766;15.338;2023-12-20T05:15:01;94414.69;;;1.27;98.67
47636;BME280;33364;50.766;15.338;2023-12-20T05:17:27;94413.34;;;1.24;98.67
47636;BME280;33364;50.766;15.338;2023-12-20T05:19:53;94416.25;;;1.28;98.50
47636;BME280;33364;50.766;15.338;2023-12-20T05:22:19;94411.00;;;1.23;98.61
47636;BME280;33364;50.766;15.338;2023-12-20T05:24:45;94409.41;;;1.22;98.54
47636;BME280;33364;50.766;15.338;2023-12-20T05:27:11;94417.16;;;1.17;98.43
47636;BME280;33364;50.766;15.338;2023-12-20T05:29:37;94422.13;;;1.18;98.61
47636;BME280;33364;50.766;15.338;2023-12-20T05:32:03;94425.75;;;1.17;98.38
47636;BME280;33364;50.766;15.338;2023-12-20T05:34:31;94424.25;;;1.21;98.52
47636;BME280;33364;50.766;15.338;2023-12-20T05:36:57;94419.50;;;1.18;98.36
47636;BME280;33364;50.766;15.338;2023-12-20T05:39:23;94423.41;;;1.16;98.32
47636;BME280;33364;50.766;15.338;2023-12-20T05:41:49;94426.00;;;1.16;98.06
47636;BME280;33364;50.766;15.338;2023-12-20T05:44:15;94424.16;;;1.16;98.22
47636;BME280;33364;50.766;15.338;2023-12-20T05:46:41;94427.19;;;1.08;98.25
47636;BME280;33364;50.766;15.338;2023-12-20T05:49:07;94420.19;;;1.09;98.00
47636;BME280;33364;50.766;15.338;2023-12-20T05:51:32;94424.59;;;1.08;98.21
47636;BME280;33364;50.766;15.338;2023-12-20T05:53:59;94434.97;;;1.08;98.08
47636;BME280;33364;50.766;15.338;2023-12-20T05:56:24;94427.41;;;1.07;97.90
47636;BME280;33364;50.766;15.338;2023-12-20T05:58:50;94429.56;;;1.10;97.92
47636;BME280;33364;50.766;15.338;2023-12-20T06:01:16;94418.53;;;1.03;97.92
47636;BME280;33364;50.766;15.338;2023-12-20T06:03:45;94417.50;;;1.04;97.95
47636;BME280;33364;50.766;15.338;2023-12-20T06:06:13;94423.97;;;1.01;97.78
47636;BME280;33364;50.766;15.338;2023-12-20T06:08:39;94422.56;;;0.94;97.48
47636;BME280;33364;50.766;15.338;2023-12-20T06:11:06;94423.28;;;0.89;97.54
47636;BME280;33364;50.766;15.338;2023-12-20T06:13:32;94423.81;;;0.91;97.57
47636;BME280;33364;50.766;15.338;2023-12-20T06:15:57;94429.81;;;0.92;97.72
47636;BME280;33364;50.766;15.338;2023-12-20T06:18:23;94430.03;;;0.90;97.57
47636;BME280;33364;50.766;15.338;2023-12-20T06:20:50;94436.56;;;0.93;97.54
47636;BME280;33364;50.766;15.338;2023-12-20T06:23:16;94438.69;;;0.96;97.76
47636;BME280;33364;50.766;15.338;2023-12-20T06:25:41;94430.38;;;0.94;97.63
47636;BME280;33364;50.766;15.338;2023-12-20T06:28:07;94446.41;;;0.91;97.65
47636;BME280;33364;50.766;15.338;2023-12-20T06:30:36;94437.38;;;0.93;97.46
47636;BME280;33364;50.766;15.338;2023-12-20T06:33:02;94440.19;;;0.92;97.30
47636;BME280;33364;50.766;15.338;2023-12-20T06:35:27;94433.91;;;0.88;97.32
47636;BME280;33364;50.766;15.338;2023-12-20T06:37:54;94435.72;;;0.87;97.39
47636;BME280;33364;50.766;15.338;2023-12-20T06:40:19;94437.69;;;0.80;97.21
47636;BME280;33364;50.766;15.338;2023-12-20T06:42:45;94442.41;;;0.83;97.22
47636;BME280;33364;50.766;15.338;2023-12-20T06:45:11;94447.63;;;0.83;97.29
47636;BME280;33364;50.766;15.338;2023-12-20T06:47:38;94451.53;;;0.85;97.41
47636;BME280;33364;50.766;15.338;2023-12-20T06:50:05;94451.31;;;0.87;97.25
47636;BME280;33364;50.766;15.338;2023-12-20T06:52:31;94455.41;;;0.83;97.02
47636;BME280;33364;50.766;15.338;2023-12-20T06:54:56;94456.59;;;0.75;97.12
47636;BME280;33364;50.766;15.338;2023-12-20T06:57:22;94453.53;;;0.78;97.31
47636;BME280;33364;50.766;15.338;2023-12-20T06:59:48;94463.59;;;0.75;97.25
47636;BME280;33364;50.766;15.338;2023-12-20T07:02:14;94453.75;;;0.77;97.29
47636;BME280;33364;50.766;15.338;2023-12-20T07:04:40;94460.19;;;0.74;97.21
47636;BME280;33364;50.766;15.338;2023-12-20T07:07:07;94468.88;;;0.80;97.35
47636;BME280;33364;50.766;15.338;2023-12-20T07:09:33;94474.41;;;0.83;97.08
47636;BME280;33364;50.766;15.338;2023-12-20T07:11:59;94474.94;;;0.85;96.97
47636;BME280;33364;50.766;15.338;2023-12-20T07:14:25;94471.72;;;0.78;96.82
47636;BME280;33364;50.766;15.338;2023-12-20T07:16:51;94479.03;;;0.81;97.00
47636;BME280;33364;50.766;15.338;2023-12-20T07:19:17;94485.09;;;0.87;97.03
47636;BME280;33364;50.766;15.338;2023-12-20T07:21:43;94483.28;;;0.88;96.85
47636;BME280;33364;50.766;15.338;2023-12-20T07:24:08;94481.72;;;0.87;96.89
47636;BME280;33364;50.766;15.338;2023-12-20T07:26:35;94487.91;;;0.85;96.51
47636;BME280;33364;50.766;15.338;2023-12-20T07:29:00;94481.63;;;0.81;96.62
47636;BME280;33364;50.766;15.338;2023-12-20T07:31:26;94484.47;;;0.80;96.44
47636;BME280;33364;50.766;15.338;2023-12-20T07:33:52;94485.72;;;0.77;96.67
47636;BME280;33364;50.766;15.338;2023-12-20T07:36:19;94496.56;;;0.74;96.91
47636;BME280;33364;50.766;15.338;2023-12-20T07:38:45;94497.72;;;0.78;97.05
47636;BME280;33364;50.766;15.338;2023-12-20T07:41:11;94490.44;;;0.80;96.99
47636;BME280;33364;50.766;15.338;2023-12-20T07:43:37;94495.97;;;0.84;96.98
47636;BME280;33364;50.766;15.338;2023-12-20T07:46:06;94495.19;;;0.83;96.91
47636;BME280;33364;50.766;15.338;2023-12-20T07:48:36;94497.53;;;0.85;96.81
47636;BME280;33364;50.766;15.338;2023-12-20T07:51:03;94495.72;;;0.85;96.70
47636;BME280;33364;50.766;15.338;2023-12-20T07:53:29;94499.38;;;0.84;96.55
47636;BME280;33364;50.766;15.338;2023-12-20T07:55:55;94502.41;;;0.81;96.52
47636;BME280;33364;50.766;15.338;2023-12-20T07:58:21;94510.28;;;0.87;96.72
47636;BME280;33364;50.766;15.338;2023-12-20T08:00:48;94505.88;;;0.87;96.57
47636;BME280;33364;50.766;15.338;2023-12-20T08:03:13;94506.69;;;0.88;96.43
47636;BME280;33364;50.766;15.338;2023-12-20T08:05:40;94508.50;;;0.87;96.36
47636;BME280;33364;50.766;15.338;2023-12-20T08:08:06;94509.84;;;0.90;96.51
47636;BME280;33364;50.766;15.338;2023-12-20T08:10:32;94503.38;;;0.92;96.54
47636;BME280;33364;50.766;15.338;2023-12-20T08:12:58;94502.28;;;0.88;96.24
47636;BME280;33364;50.766;15.338;2023-12-20T08:15:24;94498.47;;;0.96;96.56
47636;BME280;33364;50.766;15.338;2023-12-20T08:17:49;94497.38;;;0.92;96.34
47636;BME280;33364;50.766;15.338;2023-12-20T08:20:19;94494.47;;;0.88;96.13
47636;BME280;33364;50.766;15.338;2023-12-20T08:22:44;94500.38;;;0.83;96.28
47636;BME280;33364;50.766;15.338;2023-12-20T08:25:10;94496.28;;;0.88;96.50
47636;BME280;33364;50.766;15.338;2023-12-20T08:27:40;94489.34;;;0.93;96.41
47636;BME280;33364;50.766;15.338;2023-12-20T08:30:10;94496.28;;;0.88;96.17
47636;BME280;33364;50.766;15.338;2023-12-20T08:32:35;94501.47;;;0.88;96.48
47636;BME280;33364;50.766;15.338;2023-12-20T08:35:02;94498.56;;;0.84;96.37
47636;BME280;33364;50.766;15.338;2023-12-20T08:37:29;94500.75;;;0.75;96.53
47636;BME280;33364;50.766;15.338;2023-12-20T08:39:55;94499.75;;;0.76;96.69
47636;BME280;33364;50.766;15.338;2023-12-20T08:42:21;94493.53;;;0.77;96.71
47636;BME280;33364;50.766;15.338;2023-12-20T08:44:47;94491.00;;;0.82;96.95
47636;BME280;33364;50.766;15.338;2023-12-20T08:47:15;94497.00;;;0.83;96.97
47636;BME280;33364;50.766;15.338;2023-12-20T08:49:43;94497.53;;;0.85;96.86
47636;BME280;33364;50.766;15.338;2023-12-20T08:52:09;94499.38;;;0.84;96.96
47636;BME280;33364;50.766;15.338;2023-12-20T08:54:35;94494.06;;;0.79;96.91
47636;BME280;33364;50.766;15.338;2023-12-20T08:57:01;94504.00;;;0.82;96.83
47636;BME280;33364;50.766;15.338;2023-12-20T08:59:27;94501.31;;;0.77;96.98
47636;BME280;33364;50.766;15.338;2023-12-20T09:01:52;94501.84;;;0.79;96.97
47636;BME280;33364;50.766;15.338;2023-12-20T09:04:20;94499.75;;;0.76;96.99
47636;BME280;33364;50.766;15.338;2023-12-20T09:06:46;94496.91;;;0.78;96.94
47636;BME280;33364;50.766;15.338;2023-12-20T09:09:12;94498.50;;;0.79;97.05
47636;BME280;33364;50.766;15.338;2023-12-20T09:11:39;94496.44;;;0.81;96.84
47636;BME280;33364;50.766;15.338;2023-12-20T09:14:05;94512.38;;;0.84;97.17
47636;BME280;33364;50.766;15.338;2023-12-20T09:16:31;94506.59;;;0.82;96.78
47636;BME280;33364;50.766;15.338;2023-12-20T09:18:57;94501.63;;;0.81;96.82
47636;BME280;33364;50.766;15.338;2023-12-20T09:21:23;94507.63;;;0.81;96.80
47636;BME280;33364;50.766;15.338;2023-12-20T09:23:49;94501.63;;;0.81;97.16
47636;BME280;33364;50.766;15.338;2023-12-20T09:26:15;94505.81;;;0.82;97.06
47636;BME280;33364;50.766;15.338;2023-12-20T09:28:41;94506.69;;;0.88;97.06
47636;BME280;33364;50.766;15.338;2023-12-20T09:31:06;94503.53;;;0.85;96.75
47636;BME280;33364;50.766;15.338;2023-12-20T09:33:33;94513.38;;;0.83;96.66
47636;BME280;33364;50.766;15.338;2023-12-20T09:35:59;94510.78;;;0.83;96.83
47636;BME280;33364;50.766;15.338;2023-12-20T09:38:25;94506.38;;;0.84;96.99
47636;BME280;33364;50.766;15.338;2023-12-20T09:40:51;94505.97;;;0.92;96.99
47636;BME280;33364;50.766;15.338;2023-12-20T09:43:19;94501.50;;;1.04;96.91
47636;BME280;33364;50.766;15.338;2023-12-20T09:45:47;94509.91;;;1.11;96.88
47636;BME280;33364;50.766;15.338;2023-12-20T09:48:17;94514.16;;;1.17;96.38
47636;BME280;33364;50.766;15.338;2023-12-20T09:50:43;94505.41;;;1.23;96.33
47636;BME280;33364;50.766;15.338;2023-12-20T09:53:12;94505.97;;;1.25;96.26
47636;BME280;33364;50.766;15.338;2023-12-20T09:55:41;94508.41;;;1.32;96.01
47636;BME280;33364;50.766;15.338;2023-12-20T09:58:07;94517.84;;;1.38;95.90
47636;BME280;33364;50.766;15.338;2023-12-20T10:00:35;94507.13;;;1.35;95.72
47636;BME280;33364;50.766;15.338;2023-12-20T10:03:01;94513.41;;;1.39;95.57
47636;BME280;33364;50.766;15.338;2023-12-20T10:05:30;94503.34;;;1.42;95.57
47636;BME280;33364;50.766;15.338;2023-12-20T10:07:58;94496.06;;;1.44;95.65
47636;BME280;33364;50.766;15.338;2023-12-20T10:10:24;94487.53;;;1.49;95.46
47636;BME280;33364;50.766;15.338;2023-12-20T10:13:09;94483.97;;;1.55;95.28
47636;BME280;33364;50.766;15.338;2023-12-20T10:15:36;94483.75;;;1.56;95.24
47636;BME280;33364;50.766;15.338;2023-12-20T10:18:03;94474.84;;;1.52;95.20
47636;BME280;33364;50.766;15.338;2023-12-20T10:20:30;94472.31;;;1.57;95.57
47636;BME280;33364;50.766;15.338;2023-12-20T10:22:57;94476.97;;;1.55;95.26
47636;BME280;33364;50.766;15.338;2023-12-20T10:25:23;94482.00;;;1.62;95.32
47636;BME280;33364;50.766;15.338;2023-12-20T10:28:09;94478.84;;;1.60;95.11
47636;BME280;33364;50.766;15.338;2023-12-20T10:30:35;94479.22;;;1.68;95.04
47636;BME280;33364;50.766;15.338;2023-12-20T10:33:01;94467.31;;;1.73;95.13
47636;BME280;33364;50.766;15.338;2023-12-20T10:35:27;94470.44;;;1.75;95.15
47636;BME280;33364;50.766;15.338;2023-12-20T10:37:56;94474.09;;;1.74;94.90
47636;BME280;33364;50.766;15.338;2023-12-20T10:40:26;94474.09;;;1.74;94.83
47636;BME280;33364;50.766;15.338;2023-12-20T10:42:53;94474.38;;;1.77;95.07
47636;BME280;33364;50.766;15.338;2023-12-20T10:45:19;94481.84;;;1.68;94.96
47636;BME280;33364;50.766;15.338;2023-12-20T10:47:46;94477.47;;;1.74;94.72
47636;BME280;33364;50.766;15.338;2023-12-20T10:50:12;94487.22;;;1.84;94.42
47636;BME280;33364;50.766;15.338;2023-12-20T10:52:38;94481.28;;;1.88;94.10
47636;BME280;33364;50.766;15.338;2023-12-20T10:55:06;94483.16;;;1.93;93.85
47636;BME280;33364;50.766;15.338;2023-12-20T10:57:32;94465.00;;;1.98;93.93
47636;BME280;33364;50.766;15.338;2023-12-20T11:00:01;94464.44;;;1.96;93.78
47636;BME280;33364;50.766;15.338;2023-12-20T11:02:35;94466.75;;;1.92;94.08
47636;BME280;33364;50.766;15.338;2023-12-20T11:07:50;94455.44;;;1.82;94.78
47636;BME280;33364;50.766;15.338;2023-12-20T11:10:23;94443.94;;;1.78;94.84
47636;BME280;33364;50.766;15.338;2023-12-20T11:13:06;94443.38;;;1.76;94.82
47636;BME280;33364;50.766;15.338;2023-12-20T11:15:38;94446.31;;;1.79;94.94
47636;BME280;33364;50.766;15.338;2023-12-20T11:18:04;94437.72;;;1.79;94.93
47636;BME280;33364;50.766;15.338;2023-12-20T11:20:41;94437.25;;;1.87;94.83
47636;BME280;33364;50.766;15.338;2023-12-20T11:23:10;94441.94;;;1.85;94.88
47636;BME280;33364;50.766;15.338;2023-12-20T11:25:52;94445.13;;;1.92;94.73
47636;BME280;33364;50.766;15.338;2023-12-20T11:28:22;94436.06;;;1.94;94.76
47636;BME280;33364;50.766;15.338;2023-12-20T11:31:00;94427.47;;;1.94;94.71
47636;BME280;33364;50.766;15.338;2023-12-20T11:33:30;94428.47;;;1.93;94.74
47636;BME280;33364;50.766;15.338;2023-12-20T11:35:57;94429.09;;;2.00;94.98
47636;BME280;33364;50.766;15.338;2023-12-20T11:38:24;94423.63;;;2.01;94.61
47636;BME280;33364;50.766;15.338;2023-12-20T11:40:50;94418.97;;;2.03;94.37
47636;BME280;33364;50.766;15.338;2023-12-20T11:43:39;94416.66;;;2.07;94.26
47636;BME280;33364;50.766;15.338;2023-12-20T11:46:06;94418.72;;;2.05;94.41
47636;BME280;33364;50.766;15.338;2023-12-20T11:48:34;94416.06;;;2.00;94.16
47636;BME280;33364;50.766;15.338;2023-12-20T11:51:00;94422.78;;;1.96;93.46
47636;BME280;33364;50.766;15.338;2023-12-20T11:53:26;94400.91;;;1.97;93.64
47636;BME280;33364;50.766;15.338;2023-12-20T11:55:54;94393.94;;;2.02;93.54
47636;BME280;33364;50.766;15.338;2023-12-20T11:58:20;94390.50;;;1.97;93.77
47636;BME280;33364;50.766;15.338;2023-12-20T12:00:46;94386.31;;;1.96;94.04
47636;BME280;33364;50.766;15.338;2023-12-20T12:03:17;94389.19;;;1.94;94.05
47636;BME280;33364;50.766;15.338;2023-12-20T12:05:42;94381.84;;;1.91;94.50
47636;BME280;33364;50.766;15.338;2023-12-20T12:08:08;94387.56;;;1.88;94.41
47636;BME280;33364;50.766;15.338;2023-12-20T12:10:34;94380.31;;;1.90;94.39
47636;BME280;33364;50.766;15.338;2023-12-20T12:13:00;94392.97;;;1.82;94.78
47636;BME280;33364;50.766;15.338;2023-12-20T12:15:26;94388.81;;;1.86;94.55
47636;BME280;33364;50.766;15.338;2023-12-20T12:17:53;94388.78;;;1.81;94.33
47636;BME280;33364;50.766;15.338;2023-12-20T12:20:20;94376.03;;;1.79;94.65
47636;BME280;33364;50.766;15.338;2023-12-20T12:22:46;94372.13;;;1.82;94.55
47636;BME280;33364;50.766;15.338;2023-12-20T12:25:16;94373.59;;;1.73;94.99
47636;BME280;33364;50.766;15.338;2023-12-20T12:27:43;94379.03;;;1.71;95.09
47636;BME280;33364;50.766;15.338;2023-12-20T12:30:09;94376.41;;;1.66;95.54
47636;BME280;33364;50.766;15.338;2023-12-20T12:32:36;94384.38;;;1.59;95.63
47636;BME280;33364;50.766;15.338;2023-12-20T12:35:05;94373.78;;;1.66;95.63
47636;BME280;33364;50.766;15.338;2023-12-20T12:37:36;94370.41;;;1.65;95.54
47636;BME280;33364;50.766;15.338;2023-12-20T12:40:11;94375.59;;;1.65;95.61
47636;BME280;33364;50.766;15.338;2023-12-20T12:42:37;94371.97;;;1.66;95.87
47636;BME280;33364;50.766;15.338;2023-12-20T12:45:03;94370.94;;;1.67;95.92
47636;BME280;33364;50.766;15.338;2023-12-20T12:47:30;94375.47;;;1.77;96.06
47636;BME280;33364;50.766;15.338;2023-12-20T12:49:56;94364.78;;;1.74;95.88
47636;BME280;33364;50.766;15.338;2023-12-20T12:52:22;94370.44;;;1.70;95.94
47636;BME280;33364;50.766;15.338;2023-12-20T12:54:48;94360.34;;;1.74;96.14
47636;BME280;33364;50.766;15.338;2023-12-20T12:57:15;94360.03;;;1.70;96.25
47636;BME280;33364;50.766;15.338;2023-12-20T12:59:42;94367.78;;;1.65;96.30